Airfield :
LOGIN :

Register | Disclaimer

   EN    FR    IT 

 










Legend :    VFR   Marginal VFR   IFR   Intensive IFR   Very Intensive IFR
Visi :
Ceiling :
>= 8 km
>= 3000ft
5 to 8 km
1000 to 3000 ft
1500m to 5 km
500 to 1000 ft
800 to 1500m
200 to 500 ft
< 800m
< 200 ft
Symbols :   Thunderstorms  Fog  Heavy snow  Heavy precipitations  Wind > 20 kt
SIGMETs :     Misc.  Thunderstorms  Icing  Turbulence  Mountain Waves  Volcanic Ashes






- Airport Elevation : 39 ft


ETNH - Hohn AB

CURRENT METAR :
  • 271820Z 18006KT 6000 FEW008 BKN054 07/06 Q1000 WHT BLU TEMPO GRN

EXPIRED METARs :
  • 271720Z 20006KT 7000 FEW012 BKN046 07/06 Q1001 WHT BLU TEMPO GRN
  • 271620Z 19006KT 7000 FEW010 BKN032 BKN050 08/06 Q1001 WHT WHT BECMG GRN
  • 271539Z 20007KT 7000 FEW009 SCT026 BKN044 08/06 Q1001 WHT WHT BECMG GRN

TAF TAF ETNH
Valid from the 27 at 12:00 until the 28 at 00:00 UTC


271105Z 2712/2724 20010KT 8000 NSW SCT006 BKN010
TEMPO 2712/2718 21012G22KT 4000 SHRA BKN005 BKN010TCU
BECMG 2718/2720 16007KT 6000 NSW BKN004
TEMPO 2720/2724 16004KT 3000 BR OVC001 BY ETGL



MET'MAP, your aeronautical weather chart ! - Copyright ORBIFLY December 2007 - Disclaimer

ORBIFLY MET'MAP TEAM :

Programming & Development : Alexandra Zaïnal
Concept & original design : Baudouin d'Aumeries
Assistance for programming : Marc-Olivier Méhu
Technical & hardware support : Manuel Goepfert

Contact : metmap@orbifly.com




SOURCES & CREDITS :

   NOAA